createdAt,value
2022-12-22T00:00:28.592Z,0.30
2022-12-22T00:01:27.775Z,0.20
2022-12-22T00:02:27.925Z,0.20
2022-12-22T00:03:28.457Z,0.20
2022-12-22T00:04:28.013Z,0.10
2022-12-22T00:05:28.004Z,0.20
2022-12-22T00:06:27.840Z,0.20
2022-12-22T00:07:27.819Z,0.20
2022-12-22T00:08:27.687Z,0.30
2022-12-22T00:09:27.675Z,0.10
2022-12-22T00:10:27.636Z,0.60
2022-12-22T00:11:27.688Z,0.20
2022-12-22T00:12:27.762Z,0.20
2022-12-22T00:13:27.844Z,0.20
2022-12-22T00:14:27.624Z,0.20
2022-12-22T00:15:27.576Z,0.20
2022-12-22T00:16:27.641Z,0.20
2022-12-22T00:17:27.579Z,0.20
2022-12-22T00:18:27.960Z,0.20
2022-12-22T00:19:27.538Z,0.20
2022-12-22T00:20:27.737Z,0.20
2022-12-22T00:21:27.616Z,0.20
2022-12-22T00:22:27.505Z,0.20
2022-12-22T00:23:27.612Z,0.20
2022-12-22T00:24:27.495Z,0.20
2022-12-22T00:25:27.649Z,0.20
2022-12-22T00:26:27.498Z,0.20
2022-12-22T00:27:28.561Z,0.20
2022-12-22T00:28:29.620Z,0.20
2022-12-22T00:29:27.512Z,0.20
2022-12-22T00:30:27.492Z,0.20
2022-12-22T00:31:27.544Z,0.20
2022-12-22T00:32:27.401Z,0.20
2022-12-22T00:33:27.415Z,0.20
2022-12-22T00:34:32.331Z,0.10
2022-12-22T00:35:28.392Z,0.20
2022-12-22T00:36:27.372Z,0.20
2022-12-22T00:37:27.448Z,0.20
2022-12-22T00:38:27.375Z,0.10
2022-12-22T00:39:27.321Z,0.20
2022-12-22T00:40:27.314Z,0.20
2022-12-22T00:41:27.565Z,0.10
2022-12-22T00:42:27.318Z,0.20
2022-12-22T00:43:27.340Z,0.20
2022-12-22T00:44:27.278Z,0.20
2022-12-22T00:45:27.842Z,0.20
2022-12-22T00:46:27.344Z,0.20
2022-12-22T00:47:28.090Z,0.10
2022-12-22T00:48:27.286Z,0.20
2022-12-22T00:49:27.240Z,0.20
2022-12-22T00:50:27.211Z,0.20
2022-12-22T00:51:27.510Z,0.30
2022-12-22T00:52:27.244Z,0.20
2022-12-22T00:53:27.207Z,0.20
2022-12-22T00:54:27.202Z,0.10
2022-12-22T00:55:27.214Z,0.20
2022-12-22T00:56:27.202Z,0.20
2022-12-22T00:57:27.279Z,0.20
2022-12-22T00:58:27.377Z,0.20
2022-12-22T00:59:27.561Z,0.10
2022-12-22T01:00:27.106Z,0.20
2022-12-22T01:01:27.204Z,0.10
2022-12-22T01:02:27.339Z,0.20
2022-12-22T01:03:27.180Z,0.20
2022-12-22T01:04:27.089Z,0.20
2022-12-22T01:05:27.046Z,0.20
2022-12-22T01:06:27.239Z,0.20
2022-12-22T01:07:27.094Z,0.30
2022-12-22T01:08:27.098Z,0.20
2022-12-22T01:09:27.133Z,0.20
2022-12-22T01:10:27.060Z,0.20
2022-12-22T01:11:27.071Z,0.20
2022-12-22T01:12:27.049Z,0.20
2022-12-22T01:13:27.086Z,0.20
2022-12-22T01:14:27.027Z,0.20
2022-12-22T01:15:26.973Z,0.30
2022-12-22T01:16:26.964Z,0.20
2022-12-22T01:17:26.984Z,0.20
2022-12-22T01:18:26.944Z,0.20
2022-12-22T01:19:26.917Z,0.30
2022-12-22T01:20:26.967Z,0.20
2022-12-22T01:21:27.231Z,0.20
2022-12-22T01:22:26.868Z,0.20
2022-12-22T01:23:26.887Z,0.20
2022-12-22T01:24:27.047Z,0.30
2022-12-22T01:25:26.992Z,0.10
2022-12-22T01:26:26.827Z,0.20
2022-12-22T01:27:26.983Z,0.20
2022-12-22T01:28:26.912Z,0.20
2022-12-22T01:29:26.838Z,0.30
2022-12-22T01:30:26.890Z,0.10
2022-12-22T01:31:27.030Z,0.20
2022-12-22T01:32:26.935Z,0.20
2022-12-22T01:33:26.767Z,0.20
2022-12-22T01:34:27.685Z,0.20
2022-12-22T01:35:26.725Z,0.20
2022-12-22T01:36:26.870Z,0.20
2022-12-22T01:37:26.758Z,0.40
2022-12-22T01:38:26.869Z,0.20
2022-12-22T01:39:26.691Z,0.20
2022-12-22T01:40:26.766Z,0.20
2022-12-22T01:41:26.724Z,0.30
2022-12-22T01:42:26.645Z,0.20
2022-12-22T01:43:26.670Z,0.20
2022-12-22T01:44:26.716Z,0.20
2022-12-22T01:45:26.720Z,0.20
2022-12-22T01:46:26.634Z,0.20
2022-12-22T01:47:26.851Z,0.20
2022-12-22T01:48:26.607Z,0.20
2022-12-22T01:49:26.706Z,0.20
2022-12-22T01:50:26.601Z,0.20
2022-12-22T01:51:26.666Z,0.20
2022-12-22T01:52:26.552Z,0.20
2022-12-22T01:53:26.580Z,0.20
2022-12-22T01:54:26.519Z,0.30
2022-12-22T01:55:26.614Z,0.20
2022-12-22T01:56:26.925Z,0.60
2022-12-22T01:57:26.520Z,0.20
2022-12-22T01:58:26.560Z,0.20
2022-12-22T01:59:26.504Z,0.20
2022-12-22T02:00:26.501Z,0.10
2022-12-22T02:01:26.740Z,0.20
2022-12-22T02:02:26.765Z,0.20
2022-12-22T02:03:26.629Z,0.20
2022-12-22T02:04:26.441Z,0.20
2022-12-22T02:05:26.501Z,0.20
2022-12-22T02:06:26.427Z,0.20
2022-12-22T02:07:26.377Z,0.20
2022-12-22T02:08:26.476Z,0.20
2022-12-22T02:09:26.362Z,0.20
2022-12-22T02:10:26.418Z,0.20
2022-12-22T02:11:26.786Z,0.20
2022-12-22T02:12:26.317Z,0.30
2022-12-22T02:13:26.404Z,0.20
2022-12-22T02:14:30.099Z,0.20
2022-12-22T02:15:26.311Z,0.20
2022-12-22T02:16:26.390Z,0.20
2022-12-22T02:17:26.299Z,0.20
2022-12-22T02:18:26.321Z,0.20
2022-12-22T02:19:26.457Z,0.20
2022-12-22T02:20:26.292Z,0.20
2022-12-22T02:21:26.235Z,0.50
2022-12-22T02:22:26.295Z,0.50
2022-12-22T02:23:26.326Z,0.70
2022-12-22T02:24:26.226Z,0.60
2022-12-22T02:25:26.186Z,0.70
2022-12-22T02:26:26.186Z,0.80
2022-12-22T02:27:26.230Z,0.60
2022-12-22T02:28:26.410Z,0.70
2022-12-22T02:29:26.162Z,0.90
2022-12-22T02:30:26.863Z,0.60
2022-12-22T02:31:26.240Z,0.70
2022-12-22T02:32:28.164Z,0.70
2022-12-22T02:33:26.149Z,0.70
2022-12-22T02:34:26.104Z,0.60
2022-12-22T02:35:26.092Z,0.80
2022-12-22T02:36:26.070Z,0.60
2022-12-22T02:37:26.101Z,0.70
2022-12-22T02:38:26.121Z,0.70
2022-12-22T02:39:26.056Z,0.60
2022-12-22T02:40:26.071Z,0.80
2022-12-22T02:41:26.075Z,0.80
2022-12-22T02:42:26.020Z,0.60
2022-12-22T02:43:26.006Z,0.50
2022-12-22T02:44:26.246Z,0.80
2022-12-22T02:45:25.979Z,0.50
2022-12-22T02:46:26.022Z,0.60
2022-12-22T02:47:26.042Z,0.50
2022-12-22T02:48:26.011Z,0.60
2022-12-22T02:49:26.167Z,0.80
2022-12-22T02:50:25.943Z,0.60
2022-12-22T02:51:25.923Z,0.70
2022-12-22T02:52:26.056Z,0.70
2022-12-22T02:53:25.902Z,0.70
2022-12-22T02:54:26.769Z,0.90
2022-12-22T02:55:25.866Z,0.60
2022-12-22T02:56:26.226Z,0.80
2022-12-22T02:57:26.106Z,0.90
2022-12-22T02:58:25.912Z,0.60
2022-12-22T02:59:25.854Z,0.60
2022-12-22T03:00:25.897Z,0.60
2022-12-22T03:01:26.067Z,0.70
2022-12-22T03:02:26.012Z,0.60
2022-12-22T03:03:26.032Z,0.70
2022-12-22T03:04:25.783Z,0.70
2022-12-22T03:05:25.797Z,0.80
2022-12-22T03:06:25.808Z,0.80
2022-12-22T03:07:25.803Z,0.70
2022-12-22T03:08:25.779Z,0.80
2022-12-22T03:09:25.766Z,0.80
2022-12-22T03:10:25.721Z,0.90
2022-12-22T03:11:25.698Z,0.70
2022-12-22T03:12:25.722Z,0.70
2022-12-22T03:13:25.692Z,1.20
2022-12-22T03:14:25.690Z,0.80
2022-12-22T03:15:25.667Z,0.80
2022-12-22T03:16:25.743Z,1.00
2022-12-22T03:17:25.647Z,1.00
2022-12-22T03:18:25.741Z,0.80
2022-12-22T03:19:25.642Z,1.20
2022-12-22T03:20:25.618Z,0.80
2022-12-22T03:21:25.627Z,0.90
2022-12-22T03:22:25.585Z,0.90
2022-12-22T03:23:26.567Z,0.70
2022-12-22T03:24:25.777Z,0.60
2022-12-22T03:25:25.547Z,0.70
2022-12-22T03:26:25.568Z,1.00
2022-12-22T03:27:25.543Z,0.70
2022-12-22T03:28:25.541Z,0.80
2022-12-22T03:29:25.748Z,0.70
2022-12-22T03:30:25.507Z,0.90
2022-12-22T03:31:25.734Z,1.00
2022-12-22T03:32:25.512Z,1.00
2022-12-22T03:33:25.472Z,0.80
2022-12-22T03:34:25.964Z,0.90
2022-12-22T03:35:25.447Z,1.30
2022-12-22T03:36:25.434Z,1.00
2022-12-22T03:37:25.474Z,0.60
2022-12-22T03:38:25.579Z,0.80
2022-12-22T03:39:25.412Z,1.00
2022-12-22T03:40:25.574Z,0.80
2022-12-22T03:41:25.398Z,1.10
2022-12-22T03:42:25.491Z,0.80
2022-12-22T03:43:25.831Z,1.00
2022-12-22T03:44:25.345Z,0.90
2022-12-22T03:45:25.345Z,1.00
2022-12-22T03:46:25.604Z,1.10
2022-12-22T03:47:27.063Z,1.10
2022-12-22T03:48:25.376Z,1.00
2022-12-22T03:49:25.293Z,0.90
2022-12-22T03:50:25.296Z,0.90
2022-12-22T03:51:25.273Z,1.00
2022-12-22T03:52:25.255Z,1.00
2022-12-22T03:53:25.579Z,1.40
2022-12-22T03:54:25.269Z,1.10
2022-12-22T03:55:25.256Z,1.00
2022-12-22T03:56:25.356Z,1.20
2022-12-22T03:57:25.283Z,1.20
2022-12-22T03:58:25.181Z,1.20
2022-12-22T03:59:25.515Z,1.10
2022-12-22T04:00:25.169Z,1.40
2022-12-22T04:01:25.346Z,1.00
2022-12-22T04:02:25.396Z,1.20
2022-12-22T04:03:25.156Z,0.90
2022-12-22T04:04:25.401Z,1.20
2022-12-22T04:05:25.120Z,1.40
2022-12-22T04:06:25.154Z,1.20
2022-12-22T04:07:25.159Z,1.20
2022-12-22T04:08:25.093Z,1.30
2022-12-22T04:09:25.173Z,0.90
2022-12-22T04:10:25.062Z,1.20
2022-12-22T04:11:25.041Z,1.20
2022-12-22T04:12:25.205Z,1.00
2022-12-22T04:13:25.043Z,1.10
2022-12-22T04:14:29.827Z,1.00
2022-12-22T04:15:26.017Z,0.90
2022-12-22T04:16:25.162Z,0.90
2022-12-22T04:17:25.152Z,0.80
2022-12-22T04:18:25.012Z,1.10
2022-12-22T04:19:24.969Z,1.20
2022-12-22T04:20:24.956Z,0.90
2022-12-22T04:21:24.949Z,0.90
2022-12-22T04:22:24.951Z,1.00
2022-12-22T04:23:24.944Z,1.10
2022-12-22T04:24:24.921Z,0.90
2022-12-22T04:25:24.921Z,1.70
2022-12-22T04:26:25.228Z,1.00
2022-12-22T04:27:24.877Z,1.00
2022-12-22T04:28:25.017Z,1.20
2022-12-22T04:29:25.010Z,0.90
2022-12-22T04:30:24.834Z,1.30
2022-12-22T04:31:24.874Z,1.00
2022-12-22T04:32:24.812Z,1.20
2022-12-22T04:33:24.821Z,1.50
2022-12-22T04:34:24.863Z,1.10
2022-12-22T04:35:24.798Z,1.20
2022-12-22T04:36:24.790Z,1.30
2022-12-22T04:37:24.811Z,1.00
2022-12-22T04:38:24.807Z,1.10
2022-12-22T04:39:24.730Z,1.30
2022-12-22T04:40:24.734Z,1.40
2022-12-22T04:41:24.771Z,1.40
2022-12-22T04:42:24.991Z,1.10
2022-12-22T04:43:24.729Z,1.20
2022-12-22T04:44:24.687Z,1.10
2022-12-22T04:45:24.887Z,1.30
2022-12-22T04:46:24.726Z,1.20
2022-12-22T04:47:24.648Z,1.10
2022-12-22T04:48:24.663Z,1.20
2022-12-22T04:49:24.648Z,0.90
2022-12-22T04:50:24.609Z,1.40
2022-12-22T04:51:24.628Z,1.30
2022-12-22T04:52:24.607Z,1.50
2022-12-22T04:53:24.717Z,1.60
2022-12-22T04:54:24.629Z,1.30
2022-12-22T04:55:24.652Z,1.40
2022-12-22T04:56:24.628Z,1.10
2022-12-22T04:57:24.559Z,1.40
2022-12-22T04:58:24.548Z,1.20
2022-12-22T04:59:24.610Z,1.10
2022-12-22T05:00:25.023Z,1.40
2022-12-22T05:01:24.645Z,1.00
2022-12-22T05:02:24.966Z,1.20
2022-12-22T05:03:24.689Z,1.20
2022-12-22T05:04:24.810Z,1.30
2022-12-22T05:05:24.499Z,1.20
2022-12-22T05:06:24.457Z,1.20
2022-12-22T05:07:24.464Z,1.20
2022-12-22T05:08:24.494Z,1.20
2022-12-22T05:09:24.418Z,1.20
2022-12-22T05:10:24.541Z,1.20
2022-12-22T05:11:24.417Z,1.00
2022-12-22T05:12:24.403Z,0.90
2022-12-22T05:13:24.457Z,1.00
2022-12-22T05:14:24.797Z,1.30
2022-12-22T05:15:24.407Z,1.20
2022-12-22T05:16:24.498Z,1.20
2022-12-22T05:17:24.333Z,1.30
2022-12-22T05:18:24.533Z,1.50
2022-12-22T05:19:30.485Z,1.20
2022-12-22T05:20:25.391Z,1.60
2022-12-22T05:21:24.409Z,1.20
2022-12-22T05:22:24.452Z,1.30
2022-12-22T05:23:24.338Z,1.40
2022-12-22T05:24:24.283Z,1.30
2022-12-22T05:25:25.805Z,1.50
2022-12-22T05:26:24.382Z,1.10
2022-12-22T05:27:24.233Z,1.20
2022-12-22T05:28:25.328Z,1.20
2022-12-22T05:29:24.228Z,1.10
2022-12-22T05:30:25.723Z,1.10
2022-12-22T05:31:24.496Z,1.10
2022-12-22T05:32:24.167Z,1.10
2022-12-22T05:33:24.167Z,1.20
2022-12-22T05:34:24.148Z,1.20
2022-12-22T05:35:24.136Z,1.10
2022-12-22T05:36:24.149Z,1.00
2022-12-22T05:37:24.124Z,1.30
2022-12-22T05:38:24.199Z,1.20
2022-12-22T05:39:24.092Z,1.30
2022-12-22T05:40:24.156Z,0.90
2022-12-22T05:41:24.083Z,1.10
2022-12-22T05:42:25.724Z,1.00
2022-12-22T05:43:24.233Z,1.20
2022-12-22T05:44:24.081Z,0.90
2022-12-22T05:45:24.183Z,1.10
2022-12-22T05:46:24.124Z,1.30
2022-12-22T05:47:24.122Z,1.00
2022-12-22T05:48:30.826Z,1.10
2022-12-22T05:49:25.180Z,1.00
2022-12-22T05:50:24.211Z,1.40
2022-12-22T05:51:24.042Z,1.20
2022-12-22T05:52:24.256Z,1.40
2022-12-22T05:53:23.933Z,0.90
2022-12-22T05:54:24.182Z,1.10
2022-12-22T05:55:24.106Z,0.90
2022-12-22T05:56:24.091Z,1.30
2022-12-22T05:57:24.033Z,1.10
2022-12-22T05:58:23.941Z,1.40
2022-12-22T05:59:24.249Z,1.30
2022-12-22T06:00:24.077Z,1.40
2022-12-22T06:01:23.925Z,1.70
2022-12-22T06:02:25.093Z,1.30
2022-12-22T06:03:24.066Z,1.60
2022-12-22T06:04:24.051Z,1.50
2022-12-22T06:05:23.896Z,1.30
2022-12-22T06:06:24.119Z,1.60
2022-12-22T06:07:23.820Z,1.20
2022-12-22T06:08:23.876Z,1.40
2022-12-22T06:09:23.889Z,1.20
2022-12-22T06:10:23.814Z,1.20
2022-12-22T06:11:23.894Z,1.30
2022-12-22T06:12:23.735Z,1.50
2022-12-22T06:13:23.776Z,1.50
2022-12-22T06:14:23.835Z,1.20
2022-12-22T06:15:23.717Z,1.00
2022-12-22T06:16:23.783Z,1.00
2022-12-22T06:17:23.874Z,1.30
2022-12-22T06:18:23.748Z,1.30
2022-12-22T06:19:23.675Z,1.30
2022-12-22T06:20:23.710Z,1.40
2022-12-22T06:21:23.875Z,1.30
2022-12-22T06:22:23.812Z,1.10
2022-12-22T06:23:23.766Z,1.40
2022-12-22T06:24:23.685Z,1.30
2022-12-22T06:25:23.746Z,1.90
2022-12-22T06:26:23.603Z,1.30
2022-12-22T06:27:24.153Z,1.30
2022-12-22T06:28:23.990Z,1.50
2022-12-22T06:29:23.553Z,1.50
2022-12-22T06:30:30.921Z,1.40
2022-12-22T06:31:25.756Z,1.20
2022-12-22T06:32:23.648Z,1.30
2022-12-22T06:33:23.587Z,1.40
2022-12-22T06:34:23.832Z,1.90
2022-12-22T06:35:23.546Z,1.30
2022-12-22T06:36:23.635Z,1.60
2022-12-22T06:37:23.545Z,1.00
2022-12-22T06:38:23.569Z,1.50
2022-12-22T06:39:23.573Z,1.60
2022-12-22T06:40:23.657Z,1.40
2022-12-22T06:41:24.186Z,1.80
2022-12-22T06:42:23.443Z,1.70
2022-12-22T06:43:23.491Z,1.20
2022-12-22T06:44:23.449Z,1.50
2022-12-22T06:45:23.440Z,1.60
2022-12-22T06:46:23.985Z,1.60
2022-12-22T06:47:23.615Z,1.70
2022-12-22T06:48:23.376Z,1.70
2022-12-22T06:49:23.818Z,1.40
2022-12-22T06:50:23.461Z,1.30
2022-12-22T06:51:23.331Z,1.30
2022-12-22T06:52:23.405Z,1.40
2022-12-22T06:53:23.303Z,1.30
2022-12-22T06:54:26.336Z,1.70
2022-12-22T06:55:23.423Z,1.70
2022-12-22T06:56:23.317Z,1.70
2022-12-22T06:57:23.343Z,1.80
2022-12-22T06:58:23.244Z,1.20
2022-12-22T06:59:23.639Z,1.50
2022-12-22T07:00:23.527Z,1.50
2022-12-22T07:01:23.615Z,1.70
2022-12-22T07:02:23.400Z,1.40
2022-12-22T07:03:23.548Z,1.60
2022-12-22T07:04:23.361Z,1.60
2022-12-22T07:05:23.267Z,1.50
2022-12-22T07:06:23.577Z,2.10
2022-12-22T07:07:25.895Z,1.50
2022-12-22T07:08:23.893Z,1.50
2022-12-22T07:09:23.601Z,1.50
2022-12-22T07:10:23.694Z,1.40
2022-12-22T07:11:23.130Z,1.30
2022-12-22T07:12:23.823Z,1.50
2022-12-22T07:13:23.088Z,1.70
2022-12-22T07:14:23.324Z,1.20
2022-12-22T07:15:23.088Z,1.60
2022-12-22T07:16:23.182Z,2.00
2022-12-22T07:17:24.112Z,1.50
2022-12-22T07:18:23.020Z,1.70
2022-12-22T07:19:23.037Z,1.50
2022-12-22T07:20:23.669Z,3.00
2022-12-22T07:21:23.054Z,1.50
2022-12-22T07:22:29.330Z,1.40
2022-12-22T07:23:24.006Z,1.80
2022-12-22T07:24:23.163Z,1.40
2022-12-22T07:25:23.001Z,1.50
2022-12-22T07:26:22.925Z,1.40
2022-12-22T07:27:22.966Z,1.50
2022-12-22T07:28:22.999Z,1.50
2022-12-22T07:29:23.044Z,1.50
2022-12-22T07:30:23.193Z,1.30
2022-12-22T07:31:23.125Z,1.40
2022-12-22T07:32:22.876Z,1.00
2022-12-22T07:33:22.863Z,1.80
2022-12-22T07:34:22.910Z,1.70
2022-12-22T07:35:22.833Z,1.30
2022-12-22T07:36:22.886Z,1.40
2022-12-22T07:37:22.836Z,1.40
2022-12-22T07:38:22.839Z,1.50
2022-12-22T07:39:22.841Z,1.60
2022-12-22T07:40:22.792Z,1.50
2022-12-22T07:41:22.967Z,1.40
2022-12-22T07:42:22.914Z,1.60
2022-12-22T07:43:22.747Z,2.00
2022-12-22T07:44:22.818Z,1.40
2022-12-22T07:45:22.716Z,2.60
2022-12-22T07:46:23.144Z,2.40
2022-12-22T07:47:22.738Z,2.60
2022-12-22T07:48:22.694Z,1.40
2022-12-22T07:49:22.731Z,1.50
2022-12-22T07:50:23.024Z,1.90
2022-12-22T07:51:22.831Z,1.70
2022-12-22T07:52:23.401Z,1.70
2022-12-22T07:53:23.176Z,1.90
2022-12-22T07:54:22.921Z,1.50
2022-12-22T07:55:43.729Z,1.40
2022-12-22T07:56:22.653Z,1.90
2022-12-22T07:57:22.694Z,1.10
2022-12-22T07:58:22.910Z,1.40
2022-12-22T07:59:22.870Z,1.70
2022-12-22T08:00:22.619Z,1.80
2022-12-22T08:01:23.093Z,1.80
2022-12-22T08:02:22.706Z,1.80
2022-12-22T08:03:22.593Z,1.60
2022-12-22T08:04:23.030Z,1.70
2022-12-22T08:05:22.603Z,1.60
2022-12-22T08:06:22.549Z,1.40
2022-12-22T08:07:22.802Z,1.30
2022-12-22T08:08:22.667Z,1.40
2022-12-22T08:09:23.162Z,1.50
2022-12-22T08:10:22.648Z,1.40
2022-12-22T08:11:23.053Z,1.60
2022-12-22T08:12:22.516Z,1.50
2022-12-22T08:13:22.512Z,1.60
2022-12-22T08:14:22.523Z,1.90
2022-12-22T08:15:22.499Z,1.60
2022-12-22T08:16:23.168Z,1.70
2022-12-22T08:17:22.998Z,1.30
2022-12-22T08:18:22.423Z,1.60
2022-12-22T08:19:22.480Z,1.40
2022-12-22T08:20:22.399Z,1.40
2022-12-22T08:21:22.484Z,1.80
2022-12-22T08:22:22.330Z,1.80
2022-12-22T08:23:22.567Z,1.80
2022-12-22T08:24:22.334Z,1.50
2022-12-22T08:25:22.389Z,1.70
2022-12-22T08:26:23.485Z,1.80
2022-12-22T08:27:26.138Z,1.50
2022-12-22T08:28:22.354Z,1.60
2022-12-22T08:29:22.993Z,1.50
2022-12-22T08:30:22.283Z,1.60
2022-12-22T08:31:22.489Z,1.50
2022-12-22T08:32:22.386Z,1.40
2022-12-22T08:33:22.270Z,1.50
2022-12-22T08:34:22.470Z,1.60
2022-12-22T08:35:22.185Z,1.50
2022-12-22T08:36:22.263Z,1.40
2022-12-22T08:37:22.765Z,1.80
2022-12-22T08:38:22.662Z,1.40
2022-12-22T08:39:22.172Z,1.40
2022-12-22T08:40:22.235Z,1.50
2022-12-22T08:41:22.245Z,1.40
2022-12-22T08:42:22.383Z,1.70
2022-12-22T08:43:22.299Z,1.90
2022-12-22T08:44:22.983Z,1.70
2022-12-22T08:45:22.725Z,1.40
2022-12-22T08:46:22.493Z,1.90
2022-12-22T08:47:22.132Z,1.40
2022-12-22T08:48:22.057Z,1.80
2022-12-22T08:49:22.200Z,1.60
2022-12-22T08:50:22.049Z,1.40
2022-12-22T08:51:22.080Z,2.00
2022-12-22T08:52:22.023Z,1.60
2022-12-22T08:53:54.149Z,1.50
2022-12-22T08:54:23.392Z,1.30
2022-12-22T08:55:23.047Z,1.40
2022-12-22T08:56:22.249Z,2.20
2022-12-22T08:57:22.244Z,1.40
2022-12-22T08:58:22.455Z,2.20
2022-12-22T08:59:22.079Z,2.00
2022-12-22T09:00:21.938Z,1.50
2022-12-22T09:01:22.023Z,1.90
2022-12-22T09:02:22.805Z,1.80
2022-12-22T09:03:22.235Z,2.00
2022-12-22T09:04:21.940Z,1.70
2022-12-22T09:05:22.667Z,1.70
2022-12-22T09:06:26.962Z,1.80
2022-12-22T09:07:22.909Z,2.00
2022-12-22T09:08:21.964Z,1.90
2022-12-22T09:09:22.786Z,2.10
2022-12-22T09:10:22.110Z,1.80
2022-12-22T09:11:21.938Z,1.90
2022-12-22T09:12:21.935Z,1.60
2022-12-22T09:13:22.747Z,1.70
2022-12-22T09:14:22.621Z,2.50
2022-12-22T09:15:21.821Z,2.10
2022-12-22T09:16:21.850Z,1.80
2022-12-22T09:17:21.770Z,1.50
2022-12-22T09:18:22.063Z,2.10
2022-12-22T09:19:21.783Z,1.60
2022-12-22T09:20:21.872Z,1.70
2022-12-22T09:21:21.712Z,1.20
2022-12-22T09:22:28.250Z,1.60
2022-12-22T09:23:22.687Z,1.80
2022-12-22T09:24:21.706Z,1.80
2022-12-22T09:25:21.747Z,1.80
2022-12-22T09:26:21.657Z,1.80
2022-12-22T09:27:21.615Z,1.70
2022-12-22T09:28:21.609Z,9.40
2022-12-22T09:29:21.793Z,6.60
2022-12-22T09:30:21.687Z,2.00
2022-12-22T09:31:21.738Z,1.50
2022-12-22T09:32:21.922Z,1.30
2022-12-22T09:33:21.572Z,2.20
2022-12-22T09:34:21.841Z,1.40
2022-12-22T09:35:21.563Z,1.60
2022-12-22T09:36:21.581Z,2.00
2022-12-22T09:37:21.584Z,1.80
2022-12-22T09:38:21.502Z,1.60
2022-12-22T09:39:26.920Z,1.80
2022-12-22T09:40:22.487Z,1.90
2022-12-22T09:41:21.554Z,2.20
2022-12-22T09:42:21.446Z,1.60
2022-12-22T09:43:21.453Z,1.50
2022-12-22T09:44:21.560Z,2.30
2022-12-22T09:45:21.458Z,2.20
2022-12-22T09:46:21.494Z,1.80
2022-12-22T09:47:22.367Z,2.00
2022-12-22T09:48:21.480Z,1.90
2022-12-22T09:49:21.547Z,2.20
2022-12-22T09:50:21.371Z,2.40
2022-12-22T09:51:26.779Z,2.10
2022-12-22T09:52:22.347Z,2.00
2022-12-22T09:53:21.341Z,2.00
2022-12-22T09:54:21.443Z,1.60
2022-12-22T09:55:21.358Z,2.00
2022-12-22T09:56:21.339Z,2.00
2022-12-22T09:57:21.285Z,1.70
2022-12-22T09:58:26.173Z,1.30
2022-12-22T09:59:22.300Z,1.80
2022-12-22T10:00:21.263Z,1.80
2022-12-22T10:01:21.365Z,2.20
2022-12-22T10:02:21.394Z,1.70
2022-12-22T10:03:21.354Z,1.60
2022-12-22T10:04:21.265Z,1.80
2022-12-22T10:05:21.206Z,2.20
2022-12-22T10:06:21.222Z,2.10
2022-12-22T10:07:21.188Z,1.80
2022-12-22T10:08:21.187Z,2.30
2022-12-22T10:09:48.019Z,1.80
2022-12-22T10:10:22.177Z,1.90
2022-12-22T10:11:23.712Z,1.90
2022-12-22T10:12:21.139Z,2.10
2022-12-22T10:13:21.160Z,2.00
2022-12-22T10:14:21.118Z,1.70
2022-12-22T10:15:22.142Z,2.30
2022-12-22T10:16:21.238Z,1.80
2022-12-22T10:17:21.137Z,2.00
2022-12-22T10:18:21.071Z,2.10
2022-12-22T10:19:21.168Z,2.20
2022-12-22T10:20:21.105Z,1.70
2022-12-22T10:21:21.628Z,2.30
2022-12-22T10:22:21.181Z,2.30
2022-12-22T10:23:21.004Z,2.40
2022-12-22T10:24:21.035Z,2.10
2022-12-22T10:25:20.973Z,2.40
2022-12-22T10:26:30.154Z,2.40
2022-12-22T10:27:28.431Z,1.60
2022-12-22T10:28:22.215Z,1.90
2022-12-22T10:29:20.998Z,2.00
2022-12-22T10:30:20.980Z,2.20
2022-12-22T10:31:21.050Z,1.60
2022-12-22T10:32:20.948Z,1.90
2022-12-22T10:33:20.918Z,1.50
2022-12-22T10:34:20.989Z,2.10
2022-12-22T10:35:20.888Z,1.50
2022-12-22T10:36:20.904Z,1.80
2022-12-22T10:37:20.865Z,2.20
2022-12-22T10:38:22.206Z,1.50
2022-12-22T10:39:21.051Z,1.80
2022-12-22T10:40:20.841Z,1.70
2022-12-22T10:41:20.910Z,1.60
2022-12-22T10:42:20.970Z,1.90
2022-12-22T10:43:20.878Z,1.70
2022-12-22T10:44:21.247Z,1.60
2022-12-22T10:45:21.127Z,1.80
2022-12-22T10:46:20.969Z,1.90
2022-12-22T10:47:20.878Z,2.10
2022-12-22T10:48:20.807Z,1.50
2022-12-22T10:49:20.859Z,2.10
2022-12-22T10:50:20.708Z,1.70
2022-12-22T10:51:20.766Z,1.70
2022-12-22T10:52:27.420Z,2.50
2022-12-22T10:53:21.695Z,1.90
2022-12-22T10:54:20.772Z,1.90
2022-12-22T10:55:21.641Z,2.10
2022-12-22T10:56:20.659Z,1.80
2022-12-22T10:57:20.809Z,2.80
2022-12-22T10:58:20.633Z,2.20
2022-12-22T10:59:20.635Z,2.80
2022-12-22T11:00:20.621Z,2.60
2022-12-22T11:01:20.724Z,1.80
2022-12-22T11:02:20.812Z,2.70
2022-12-22T11:03:24.602Z,2.80
2022-12-22T11:04:20.570Z,2.30
2022-12-22T11:05:20.777Z,2.00
2022-12-22T11:06:20.591Z,1.90
2022-12-22T11:07:20.621Z,2.00
2022-12-22T11:08:20.598Z,1.70
2022-12-22T11:09:35.798Z,2.20
2022-12-22T11:10:21.717Z,1.80
2022-12-22T11:11:20.546Z,1.90
2022-12-22T11:12:20.535Z,2.10
2022-12-22T11:13:21.000Z,1.70
2022-12-22T11:14:20.696Z,1.70
2022-12-22T11:15:24.658Z,1.60
2022-12-22T11:16:20.561Z,1.30
2022-12-22T11:17:20.575Z,1.60
2022-12-22T11:18:20.438Z,1.30
2022-12-22T11:19:20.427Z,1.30
2022-12-22T11:20:20.385Z,1.70
2022-12-22T11:21:24.289Z,2.10
2022-12-22T11:22:20.368Z,3.30
2022-12-22T11:23:20.395Z,3.40
2022-12-22T11:24:20.513Z,2.00
2022-12-22T11:25:20.357Z,1.60
2022-12-22T11:26:20.427Z,1.50
2022-12-22T11:27:20.376Z,1.60
2022-12-22T11:28:20.389Z,1.70
2022-12-22T11:29:20.335Z,1.80
2022-12-22T11:30:20.302Z,1.60
2022-12-22T11:31:20.378Z,1.70
2022-12-22T11:32:21.348Z,1.50
2022-12-22T11:33:20.433Z,1.90
2022-12-22T11:34:21.465Z,2.20
2022-12-22T11:35:20.253Z,1.90
2022-12-22T11:36:20.277Z,1.60
2022-12-22T11:37:20.343Z,1.90
2022-12-22T11:38:20.264Z,2.60
2022-12-22T11:39:20.363Z,2.00
2022-12-22T11:40:20.255Z,2.70
2022-12-22T11:41:20.917Z,2.10
2022-12-22T11:42:20.966Z,2.40
2022-12-22T11:43:20.191Z,1.90
2022-12-22T11:44:20.229Z,1.80
2022-12-22T11:45:20.750Z,2.50
2022-12-22T11:46:21.225Z,2.70
2022-12-22T11:47:20.121Z,1.80
2022-12-22T11:48:20.285Z,2.00
2022-12-22T11:49:20.948Z,2.30
2022-12-22T11:50:58.533Z,2.50
2022-12-22T11:51:27.103Z,3.10
2022-12-22T11:52:21.271Z,2.10
2022-12-22T11:53:20.301Z,2.40
2022-12-22T11:54:20.117Z,2.50
2022-12-22T11:55:20.190Z,2.40
2022-12-22T11:56:20.715Z,2.70
2022-12-22T11:57:20.151Z,2.60
2022-12-22T11:58:22.843Z,2.70
2022-12-22T11:59:20.095Z,3.20
2022-12-22T12:00:20.182Z,3.30
2022-12-22T12:01:26.022Z,4.70
2022-12-22T12:02:21.152Z,3.60
2022-12-22T12:03:20.520Z,2.90
2022-12-22T12:04:20.059Z,3.80
2022-12-22T12:05:20.055Z,2.90
2022-12-22T12:06:19.976Z,2.60
2022-12-22T12:07:25.408Z,2.50
2022-12-22T12:08:21.742Z,3.60
2022-12-22T12:09:21.263Z,2.40
2022-12-22T12:10:20.024Z,3.50
2022-12-22T12:11:20.087Z,2.60
2022-12-22T12:12:19.988Z,2.90
2022-12-22T12:13:27.401Z,2.70
2022-12-22T12:14:20.967Z,2.80
2022-12-22T12:15:20.252Z,2.60
2022-12-22T12:16:19.930Z,2.70
2022-12-22T12:17:21.472Z,2.60
2022-12-22T12:18:20.099Z,2.10
2022-12-22T12:19:26.319Z,2.70
2022-12-22T12:20:21.053Z,3.10
2022-12-22T12:21:19.854Z,2.20
2022-12-22T12:22:19.820Z,2.00
2022-12-22T12:23:20.973Z,2.60
2022-12-22T12:24:19.742Z,2.50
2022-12-22T12:25:25.442Z,2.20
2022-12-22T12:26:22.468Z,2.50
2022-12-22T12:27:19.774Z,2.40
2022-12-22T12:28:19.840Z,2.60
2022-12-22T12:29:19.985Z,2.80
2022-12-22T12:31:26.082Z,2.80
2022-12-22T12:32:20.684Z,2.40
2022-12-22T12:33:19.826Z,2.80
2022-12-22T12:34:19.677Z,2.70
2022-12-22T12:35:22.812Z,2.70
2022-12-22T12:36:19.617Z,2.70
2022-12-22T12:37:24.243Z,2.10
2022-12-22T12:38:39.801Z,2.60
2022-12-22T12:39:21.746Z,2.50
2022-12-22T12:40:20.540Z,4.80
2022-12-22T12:41:23.042Z,6.50
2022-12-22T12:42:20.150Z,6.00
2022-12-22T12:43:22.399Z,3.30
2022-12-22T12:44:20.644Z,5.70
2022-12-22T12:45:19.768Z,6.70
2022-12-22T12:46:20.705Z,10.00
2022-12-22T12:47:19.459Z,2.70
2022-12-22T12:48:19.844Z,2.30
2022-12-22T12:49:26.362Z,2.80
2022-12-22T12:50:21.189Z,3.50
2022-12-22T12:51:20.312Z,4.00
2022-12-22T12:52:19.712Z,5.10
2022-12-22T12:53:21.592Z,4.90
2022-12-22T12:54:19.479Z,3.10
2022-12-22T12:55:21.655Z,4.10
2022-12-22T12:56:20.483Z,3.90
2022-12-22T12:57:19.411Z,3.80
2022-12-22T12:58:19.377Z,2.50
2022-12-22T12:59:19.580Z,3.50
2022-12-22T13:00:19.641Z,2.40
2022-12-22T13:01:23.758Z,2.80
2022-12-22T13:02:22.380Z,3.30
2022-12-22T13:03:37.325Z,2.60
2022-12-22T13:04:20.502Z,3.20
2022-12-22T13:05:19.622Z,2.10
2022-12-22T13:06:19.516Z,2.20
2022-12-22T13:07:19.674Z,3.00
2022-12-22T13:08:19.613Z,2.50
2022-12-22T13:10:20.926Z,2.20
2022-12-22T13:11:44.855Z,2.50
2022-12-22T13:12:24.607Z,2.00
2022-12-22T13:13:19.187Z,2.40
2022-12-22T13:14:19.799Z,2.10
2022-12-22T13:15:19.627Z,2.30
2022-12-22T13:16:19.526Z,2.40
2022-12-22T13:17:20.202Z,1.90
2022-12-22T13:18:21.737Z,2.30
2022-12-22T13:19:20.958Z,2.20
2022-12-22T13:20:19.351Z,2.20